sensor_id;sensor_type;location;lat;lon;timestamp;pressure;altitude;pressure_sealevel;temperature
65738;BMP280;52478;51.844;6.582;2023-04-01T00:01:33;98892.34;;;21.93
65738;BMP280;52478;51.844;6.582;2023-04-01T00:04:00;98887.50;;;21.93
65738;BMP280;52478;51.844;6.582;2023-04-01T00:06:27;98883.25;;;21.92
65738;BMP280;52478;51.844;6.582;2023-04-01T00:08:54;98884.00;;;21.93
65738;BMP280;52478;51.844;6.582;2023-04-01T00:11:21;98883.25;;;21.92
65738;BMP280;52478;51.844;6.582;2023-04-01T00:13:48;98878.97;;;21.91
65738;BMP280;52478;51.844;6.582;2023-04-01T00:16:15;98893.06;;;21.93
65738;BMP280;52478;51.844;6.582;2023-04-01T00:18:42;98881.94;;;21.93
65738;BMP280;52478;51.844;6.582;2023-04-01T00:21:09;98881.19;;;21.93
65738;BMP280;52478;51.844;6.582;2023-04-01T00:23:36;98880.44;;;21.92
65738;BMP280;52478;51.844;6.582;2023-04-01T00:26:03;98873.25;;;21.89
65738;BMP280;52478;51.844;6.582;2023-04-01T00:28:31;98870.78;;;21.93
65738;BMP280;52478;51.844;6.582;2023-04-01T00:30:57;98876.91;;;21.92
65738;BMP280;52478;51.844;6.582;2023-04-01T00:33:24;98870.06;;;21.93
65738;BMP280;52478;51.844;6.582;2023-04-01T00:35:50;98872.09;;;21.92
65738;BMP280;52478;51.844;6.582;2023-04-01T00:38:18;98864.50;;;21.93
65738;BMP280;52478;51.844;6.582;2023-04-01T00:40:46;98864.50;;;21.93
65738;BMP280;52478;51.844;6.582;2023-04-01T00:43:15;98865.22;;;21.93
65738;BMP280;52478;51.844;6.582;2023-04-01T00:45:44;98868.00;;;21.93
65738;BMP280;52478;51.844;6.582;2023-04-01T00:48:15;98859.63;;;21.93
65738;BMP280;52478;51.844;6.582;2023-04-01T00:50:46;98865.22;;;21.93
65738;BMP280;52478;51.844;6.582;2023-04-01T00:53:16;98865.94;;;21.94
65738;BMP280;52478;51.844;6.582;2023-04-01T00:55:50;98862.44;;;21.93
65738;BMP280;52478;51.844;6.582;2023-04-01T00:58:20;98863.16;;;21.94
65738;BMP280;52478;51.844;6.582;2023-04-01T01:00:48;98860.38;;;21.94
65738;BMP280;52478;51.844;6.582;2023-04-01T01:03:16;98863.91;;;21.94
65738;BMP280;52478;51.844;6.582;2023-04-01T01:05:55;98866.69;;;21.94
65738;BMP280;52478;51.844;6.582;2023-04-01T01:08:31;98868.00;;;21.93
65738;BMP280;52478;51.844;6.582;2023-04-01T01:11:05;98868.00;;;21.93
65738;BMP280;52478;51.844;6.582;2023-04-01T01:13:36;98866.69;;;21.94
65738;BMP280;52478;51.844;6.582;2023-04-01T01:16:08;98872.25;;;21.94
65738;BMP280;52478;51.844;6.582;2023-04-01T01:18:40;98865.22;;;21.93
65738;BMP280;52478;51.844;6.582;2023-04-01T01:21:30;98870.06;;;21.93
65738;BMP280;52478;51.844;6.582;2023-04-01T01:24:21;98870.78;;;21.93
65738;BMP280;52478;51.844;6.582;2023-04-01T01:26:56;98862.59;;;21.95
65738;BMP280;52478;51.844;6.582;2023-04-01T01:29:42;98872.25;;;21.94
65738;BMP280;52478;51.844;6.582;2023-04-01T01:32:23;98860.38;;;21.94
65738;BMP280;52478;51.844;6.582;2023-04-01T01:34:55;98870.19;;;21.95
65738;BMP280;52478;51.844;6.582;2023-04-01T01:37:27;98869.47;;;21.94
65738;BMP280;52478;51.844;6.582;2023-04-01T01:39:59;98859.47;;;21.91
65738;BMP280;52478;51.844;6.582;2023-04-01T01:42:29;98861.13;;;21.94
65738;BMP280;52478;51.844;6.582;2023-04-01T01:44:58;98869.47;;;21.94
65738;BMP280;52478;51.844;6.582;2023-04-01T01:47:28;98865.94;;;21.94
65738;BMP280;52478;51.844;6.582;2023-04-01T01:49:55;98875.03;;;21.94
65738;BMP280;52478;51.844;6.582;2023-04-01T01:52:23;98865.94;;;21.94
65738;BMP280;52478;51.844;6.582;2023-04-01T01:54:51;98872.97;;;21.95
65738;BMP280;52478;51.844;6.582;2023-04-01T01:57:22;98883.41;;;21.94
65738;BMP280;52478;51.844;6.582;2023-04-01T01:59:51;98872.25;;;21.94
65738;BMP280;52478;51.844;6.582;2023-04-01T02:02:19;98868.97;;;21.88
65738;BMP280;52478;51.844;6.582;2023-04-01T02:04:45;98876.34;;;21.93
65738;BMP280;52478;51.844;6.582;2023-04-01T02:07:16;98874.13;;;21.92
65738;BMP280;52478;51.844;6.582;2023-04-01T02:09:44;98879.13;;;21.93
65738;BMP280;52478;51.844;6.582;2023-04-01T02:12:13;98881.94;;;21.93
65738;BMP280;52478;51.844;6.582;2023-04-01T02:14:44;98883.25;;;21.92
65738;BMP280;52478;51.844;6.582;2023-04-01T02:17:14;98884.00;;;21.93
65738;BMP280;52478;51.844;6.582;2023-04-01T02:19:46;98886.03;;;21.92
65738;BMP280;52478;51.844;6.582;2023-04-01T02:22:16;98883.25;;;21.92
65738;BMP280;52478;51.844;6.582;2023-04-01T02:24:45;98884.72;;;21.93
65738;BMP280;52478;51.844;6.582;2023-04-01T02:27:13;98881.19;;;21.93
65738;BMP280;52478;51.844;6.582;2023-04-01T02:29:40;98886.03;;;21.92
65738;BMP280;52478;51.844;6.582;2023-04-01T02:32:07;98886.78;;;21.93
65738;BMP280;52478;51.844;6.582;2023-04-01T02:34:35;98884.72;;;21.93
65738;BMP280;52478;51.844;6.582;2023-04-01T02:37:02;98897.91;;;21.93
65738;BMP280;52478;51.844;6.582;2023-04-01T02:39:28;98893.06;;;21.93
65738;BMP280;52478;51.844;6.582;2023-04-01T02:41:55;98891.59;;;21.92
65738;BMP280;52478;51.844;6.582;2023-04-01T02:44:23;98893.06;;;21.93
65738;BMP280;52478;51.844;6.582;2023-04-01T02:46:50;98893.78;;;21.94
65738;BMP280;52478;51.844;6.582;2023-04-01T02:49:16;98897.91;;;21.93
65738;BMP280;52478;51.844;6.582;2023-04-01T02:51:43;98897.16;;;21.92
65738;BMP280;52478;51.844;6.582;2023-04-01T02:54:09;98903.47;;;21.93
65738;BMP280;52478;51.844;6.582;2023-04-01T02:56:36;98902.72;;;21.92
65738;BMP280;52478;51.844;6.582;2023-04-01T02:59:02;98897.91;;;21.93
65738;BMP280;52478;51.844;6.582;2023-04-01T03:01:30;98901.97;;;21.92
65738;BMP280;52478;51.844;6.582;2023-04-01T03:03:57;98902.72;;;21.92
65738;BMP280;52478;51.844;6.582;2023-04-01T03:06:23;98905.53;;;21.92
65738;BMP280;52478;51.844;6.582;2023-04-01T03:08:50;98905.53;;;21.92
65738;BMP280;52478;51.844;6.582;2023-04-01T03:11:16;98908.31;;;21.92
65738;BMP280;52478;51.844;6.582;2023-04-01T03:13:43;98911.09;;;21.92
65738;BMP280;52478;51.844;6.582;2023-04-01T03:16:09;98909.06;;;21.93
65738;BMP280;52478;51.844;6.582;2023-04-01T03:18:37;98918.69;;;21.92
65738;BMP280;52478;51.844;6.582;2023-04-01T03:21:15;98919.44;;;21.92
65738;BMP280;52478;51.844;6.582;2023-04-01T03:23:42;98911.84;;;21.93
65738;BMP280;52478;51.844;6.582;2023-04-01T03:26:08;98920.19;;;21.93
65738;BMP280;52478;51.844;6.582;2023-04-01T03:28:36;98923.53;;;21.91
65738;BMP280;52478;51.844;6.582;2023-04-01T03:31:03;98926.31;;;21.91
65738;BMP280;52478;51.844;6.582;2023-04-01T03:33:30;98929.09;;;21.91
65738;BMP280;52478;51.844;6.582;2023-04-01T03:35:58;98933.38;;;21.92
65738;BMP280;52478;51.844;6.582;2023-04-01T03:38:24;98929.09;;;21.91
65738;BMP280;52478;51.844;6.582;2023-04-01T03:40:51;98929.09;;;21.91
65738;BMP280;52478;51.844;6.582;2023-04-01T03:43:17;98933.19;;;21.90
65738;BMP280;52478;51.844;6.582;2023-04-01T03:45:44;98934.69;;;21.91
65738;BMP280;52478;51.844;6.582;2023-04-01T03:48:11;98934.69;;;21.91
65738;BMP280;52478;51.844;6.582;2023-04-01T03:50:37;98940.25;;;21.91
65738;BMP280;52478;51.844;6.582;2023-04-01T03:53:05;98938.94;;;21.92
65738;BMP280;52478;51.844;6.582;2023-04-01T03:55:32;98936.00;;;21.90
65738;BMP280;52478;51.844;6.582;2023-04-01T03:57:59;98941.72;;;21.92
65738;BMP280;52478;51.844;6.582;2023-04-01T04:00:27;98945.06;;;21.91
65738;BMP280;52478;51.844;6.582;2023-04-01T04:02:53;98934.69;;;21.91
65738;BMP280;52478;51.844;6.582;2023-04-01T04:05:20;98933.19;;;21.90
65738;BMP280;52478;51.844;6.582;2023-04-01T04:07:47;98945.81;;;21.91
65738;BMP280;52478;51.844;6.582;2023-04-01T04:10:14;98945.06;;;21.91
65738;BMP280;52478;51.844;6.582;2023-04-01T04:12:41;98944.34;;;21.90
65738;BMP280;52478;51.844;6.582;2023-04-01T04:15:08;98942.28;;;21.91
65738;BMP280;52478;51.844;6.582;2023-04-01T04:17:35;98942.88;;;21.89
65738;BMP280;52478;51.844;6.582;2023-04-01T04:20:01;98951.97;;;21.90
65738;BMP280;52478;51.844;6.582;2023-04-01T04:22:28;98954.00;;;21.89
65738;BMP280;52478;51.844;6.582;2023-04-01T04:24:54;98952.53;;;21.88
65738;BMP280;52478;51.844;6.582;2023-04-01T04:27:22;98954.00;;;21.89
65738;BMP280;52478;51.844;6.582;2023-04-01T04:29:49;98954.00;;;21.89
65738;BMP280;52478;51.844;6.582;2023-04-01T04:32:15;98958.84;;;21.89
65738;BMP280;52478;51.844;6.582;2023-04-01T04:34:41;98954.75;;;21.90
65738;BMP280;52478;51.844;6.582;2023-04-01T04:37:08;98959.59;;;21.89
65738;BMP280;52478;51.844;6.582;2023-04-01T04:39:34;98959.59;;;21.89
65738;BMP280;52478;51.844;6.582;2023-04-01T04:42:01;98958.09;;;21.88
65738;BMP280;52478;51.844;6.582;2023-04-01T04:44:29;98967.22;;;21.89
65738;BMP280;52478;51.844;6.582;2023-04-01T04:46:55;98965.16;;;21.89
65738;BMP280;52478;51.844;6.582;2023-04-01T04:49:22;98963.66;;;21.88
65738;BMP280;52478;51.844;6.582;2023-04-01T04:51:48;98969.25;;;21.88
65738;BMP280;52478;51.844;6.582;2023-04-01T04:54:15;98958.84;;;21.89
65738;BMP280;52478;51.844;6.582;2023-04-01T04:56:41;98967.94;;;21.89
65738;BMP280;52478;51.844;6.582;2023-04-01T04:59:07;98972.78;;;21.89
65738;BMP280;52478;51.844;6.582;2023-04-01T05:01:35;98974.81;;;21.88
65738;BMP280;52478;51.844;6.582;2023-04-01T05:04:02;98980.38;;;21.88
65738;BMP280;52478;51.844;6.582;2023-04-01T05:06:28;98980.38;;;21.88
65738;BMP280;52478;51.844;6.582;2023-04-01T05:08:56;98975.56;;;21.89
65738;BMP280;52478;51.844;6.582;2023-04-01T05:11:23;98978.34;;;21.89
65738;BMP280;52478;51.844;6.582;2023-04-01T05:13:51;98981.56;;;21.85
65738;BMP280;52478;51.844;6.582;2023-04-01T05:16:20;98987.44;;;21.89
65738;BMP280;52478;51.844;6.582;2023-04-01T05:18:48;98989.50;;;21.89
65738;BMP280;52478;51.844;6.582;2023-04-01T05:21:15;98972.59;;;21.87
65738;BMP280;52478;51.844;6.582;2023-04-01T05:23:41;98980.38;;;21.88
65738;BMP280;52478;51.844;6.582;2023-04-01T05:26:08;98984.47;;;21.87
65738;BMP280;52478;51.844;6.582;2023-04-01T05:28:35;98987.44;;;21.89
65738;BMP280;52478;51.844;6.582;2023-04-01T05:31:05;98983.00;;;21.86
65738;BMP280;52478;51.844;6.582;2023-04-01T05:33:32;98991.53;;;21.88
65738;BMP280;52478;51.844;6.582;2023-04-01T05:36:07;98997.84;;;21.89
65738;BMP280;52478;51.844;6.582;2023-04-01T05:38:34;99000.63;;;21.89
65738;BMP280;52478;51.844;6.582;2023-04-01T05:41:01;98992.28;;;21.89
65738;BMP280;52478;51.844;6.582;2023-04-01T05:43:28;98991.53;;;21.88
65738;BMP280;52478;51.844;6.582;2023-04-01T05:45:55;98991.53;;;21.88
65738;BMP280;52478;51.844;6.582;2023-04-01T05:48:21;98993.00;;;21.89
65738;BMP280;52478;51.844;6.582;2023-04-01T05:50:48;98993.00;;;21.89
65738;BMP280;52478;51.844;6.582;2023-04-01T05:53:16;98998.56;;;21.89
65738;BMP280;52478;51.844;6.582;2023-04-01T05:55:42;99004.16;;;21.89
65738;BMP280;52478;51.844;6.582;2023-04-01T05:58:09;98998.56;;;21.89
65738;BMP280;52478;51.844;6.582;2023-04-01T06:00:35;98999.31;;;21.90
65738;BMP280;52478;51.844;6.582;2023-04-01T06:03:02;99004.16;;;21.89
65738;BMP280;52478;51.844;6.582;2023-04-01T06:05:30;99006.94;;;21.89
65738;BMP280;52478;51.844;6.582;2023-04-01T06:08:06;99005.28;;;21.86
65738;BMP280;52478;51.844;6.582;2023-04-01T06:10:45;99011.03;;;21.88
65738;BMP280;52478;51.844;6.582;2023-04-01T06:13:23;99012.50;;;21.89
65738;BMP280;52478;51.844;6.582;2023-04-01T06:15:55;99013.81;;;21.88
65738;BMP280;52478;51.844;6.582;2023-04-01T06:21:27;99016.59;;;21.88
65738;BMP280;52478;51.844;6.582;2023-04-01T06:24:01;99012.34;;;21.87
65738;BMP280;52478;51.844;6.582;2023-04-01T06:26:35;99029.03;;;21.87
65738;BMP280;52478;51.844;6.582;2023-04-01T06:29:27;99020.69;;;21.87
65738;BMP280;52478;51.844;6.582;2023-04-01T06:32:10;99029.03;;;21.87
65738;BMP280;52478;51.844;6.582;2023-04-01T06:34:49;99026.25;;;21.87
65738;BMP280;52478;51.844;6.582;2023-04-01T06:37:28;99026.25;;;21.87
65738;BMP280;52478;51.844;6.582;2023-04-01T06:40:17;99030.34;;;21.86
65738;BMP280;52478;51.844;6.582;2023-04-01T06:42:57;99030.34;;;21.86
65738;BMP280;52478;51.844;6.582;2023-04-01T06:45:36;99038.69;;;21.86
65738;BMP280;52478;51.844;6.582;2023-04-01T06:48:17;99034.59;;;21.87
65738;BMP280;52478;51.844;6.582;2023-04-01T06:50:54;99039.44;;;21.87
65738;BMP280;52478;51.844;6.582;2023-04-01T06:53:26;99033.84;;;21.87
65738;BMP280;52478;51.844;6.582;2023-04-01T06:56:00;99042.97;;;21.87
65738;BMP280;52478;51.844;6.582;2023-04-01T06:58:34;99033.72;;;21.85
65738;BMP280;52478;51.844;6.582;2023-04-01T07:01:04;99049.84;;;21.86
65738;BMP280;52478;51.844;6.582;2023-04-01T07:03:33;99045.00;;;21.87
65738;BMP280;52478;51.844;6.582;2023-04-01T07:06:03;99045.75;;;21.87
65738;BMP280;52478;51.844;6.582;2023-04-01T07:08:33;99045.00;;;21.87
65738;BMP280;52478;51.844;6.582;2023-04-01T07:11:04;99046.50;;;21.88
65738;BMP280;52478;51.844;6.582;2023-04-01T07:13:35;99057.66;;;21.88
65738;BMP280;52478;51.844;6.582;2023-04-01T07:16:12;99051.31;;;21.87
65738;BMP280;52478;51.844;6.582;2023-04-01T07:18:43;99061.16;;;21.88
65738;BMP280;52478;51.844;6.582;2023-04-01T07:21:21;99061.91;;;21.89
65738;BMP280;52478;51.844;6.582;2023-04-01T07:23:50;99066.72;;;21.88
65738;BMP280;52478;51.844;6.582;2023-04-01T07:26:19;99066.72;;;21.88
65738;BMP280;52478;51.844;6.582;2023-04-01T07:28:48;99069.69;;;21.90
65738;BMP280;52478;51.844;6.582;2023-04-01T07:31:34;99076.56;;;21.89
65738;BMP280;52478;51.844;6.582;2023-04-01T07:34:10;99083.59;;;21.90
65738;BMP280;52478;51.844;6.582;2023-04-01T07:36:42;99085.09;;;21.91
65738;BMP280;52478;51.844;6.582;2023-04-01T07:39:19;99091.38;;;21.92
65738;BMP280;52478;51.844;6.582;2023-04-01T07:41:55;99091.38;;;21.92
65738;BMP280;52478;51.844;6.582;2023-04-01T07:44:33;99097.72;;;21.92
65738;BMP280;52478;51.844;6.582;2023-04-01T07:47:09;99100.50;;;21.92
65738;BMP280;52478;51.844;6.582;2023-04-01T07:49:46;99103.28;;;21.92
65738;BMP280;52478;51.844;6.582;2023-04-01T07:52:19;99104.03;;;21.93
65738;BMP280;52478;51.844;6.582;2023-04-01T07:54:53;99106.81;;;21.93
65738;BMP280;52478;51.844;6.582;2023-04-01T07:57:24;99118.69;;;21.93
65738;BMP280;52478;51.844;6.582;2023-04-01T07:59:59;99116.63;;;21.94
65738;BMP280;52478;51.844;6.582;2023-04-01T08:02:37;99118.69;;;21.93
65738;BMP280;52478;51.844;6.582;2023-04-01T08:05:17;99124.44;;;21.95
65738;BMP280;52478;51.844;6.582;2023-04-01T08:07:50;99134.09;;;21.94
65738;BMP280;52478;51.844;6.582;2023-04-01T08:10:25;99132.03;;;21.95
65738;BMP280;52478;51.844;6.582;2023-04-01T08:13:04;99139.66;;;21.94
65738;BMP280;52478;51.844;6.582;2023-04-01T08:15:37;99140.38;;;21.95
65738;BMP280;52478;51.844;6.582;2023-04-01T08:18:15;99147.44;;;21.96
65738;BMP280;52478;51.844;6.582;2023-04-01T08:20:47;99147.44;;;21.96
65738;BMP280;52478;51.844;6.582;2023-04-01T08:23:17;99153.75;;;21.96
65738;BMP280;52478;51.844;6.582;2023-04-01T08:25:50;99156.69;;;21.98
65738;BMP280;52478;51.844;6.582;2023-04-01T08:28:24;99157.44;;;21.99
65738;BMP280;52478;51.844;6.582;2023-04-01T08:30:56;99161.00;;;21.99
65738;BMP280;52478;51.844;6.582;2023-04-01T08:33:26;99158.19;;;21.99
65738;BMP280;52478;51.844;6.582;2023-04-01T08:35:56;99162.47;;;22.00
65738;BMP280;52478;51.844;6.582;2023-04-01T08:38:29;99168.03;;;22.00
65738;BMP280;52478;51.844;6.582;2023-04-01T08:41:03;99177.13;;;22.01
65738;BMP280;52478;51.844;6.582;2023-04-01T08:43:48;99183.41;;;22.01
65738;BMP280;52478;51.844;6.582;2023-04-01T08:46:41;99184.19;;;22.02
65738;BMP280;52478;51.844;6.582;2023-04-01T08:49:19;99184.91;;;22.02
65738;BMP280;52478;51.844;6.582;2023-04-01T08:52:10;99180.09;;;22.03
65738;BMP280;52478;51.844;6.582;2023-04-01T08:54:59;99187.69;;;22.02
65738;BMP280;52478;51.844;6.582;2023-04-01T08:57:38;99186.41;;;22.03
65738;BMP280;52478;51.844;6.582;2023-04-01T09:00:15;99190.69;;;22.04
65738;BMP280;52478;51.844;6.582;2023-04-01T09:03:29;99199.03;;;22.04
65738;BMP280;52478;51.844;6.582;2023-04-01T09:06:17;99203.84;;;22.04
65738;BMP280;52478;51.844;6.582;2023-04-01T09:08:59;99209.44;;;22.04
65738;BMP280;52478;51.844;6.582;2023-04-01T09:11:38;99215.75;;;22.04
65738;BMP280;52478;51.844;6.582;2023-04-01T09:14:26;99215.00;;;22.04
65738;BMP280;52478;51.844;6.582;2023-04-01T09:17:20;99226.13;;;22.04
65738;BMP280;52478;51.844;6.582;2023-04-01T09:20:15;99225.41;;;22.03
65738;BMP280;52478;51.844;6.582;2023-04-01T09:23:05;99230.78;;;22.01
65738;BMP280;52478;51.844;6.582;2023-04-01T09:25:46;99236.34;;;22.01
65738;BMP280;52478;51.844;6.582;2023-04-01T09:28:19;99236.56;;;22.03
65738;BMP280;52478;51.844;6.582;2023-04-01T09:31:08;99238.59;;;22.03
65738;BMP280;52478;51.844;6.582;2023-04-01T09:33:58;99240.06;;;22.04
65738;BMP280;52478;51.844;6.582;2023-04-01T09:36:42;99249.19;;;22.04
65738;BMP280;52478;51.844;6.582;2023-04-01T09:39:20;99249.91;;;22.05
65738;BMP280;52478;51.844;6.582;2023-04-01T09:42:00;99254.75;;;22.04
65738;BMP280;52478;51.844;6.582;2023-04-01T09:44:33;99257.69;;;22.06
65738;BMP280;52478;51.844;6.582;2023-04-01T09:47:13;99263.25;;;22.06
65738;BMP280;52478;51.844;6.582;2023-04-01T09:49:54;99264.03;;;22.07
65738;BMP280;52478;51.844;6.582;2023-04-01T09:52:31;99266.97;;;22.09
65738;BMP280;52478;51.844;6.582;2023-04-01T09:55:39;99278.84;;;22.09
65738;BMP280;52478;51.844;6.582;2023-04-01T09:58:33;99278.84;;;22.09
65738;BMP280;52478;51.844;6.582;2023-04-01T10:01:22;99277.41;;;22.08
65738;BMP280;52478;51.844;6.582;2023-04-01T10:04:23;99280.72;;;22.07
65738;BMP280;52478;51.844;6.582;2023-04-01T10:20:01;99291.47;;;22.10
65738;BMP280;52478;51.844;6.582;2023-04-01T10:25:52;99306.31;;;22.13
65738;BMP280;52478;51.844;6.582;2023-04-01T10:31:25;99307.06;;;22.13
65738;BMP280;52478;51.844;6.582;2023-04-01T10:36:50;99302.22;;;22.14
65738;BMP280;52478;51.844;6.582;2023-04-01T10:39:52;99310.03;;;22.15
65738;BMP280;52478;51.844;6.582;2023-04-01T10:42:45;99312.66;;;22.13
65738;BMP280;52478;51.844;6.582;2023-04-01T10:49:04;99318.41;;;22.15
65738;BMP280;52478;51.844;6.582;2023-04-01T10:54:47;99324.72;;;22.16
65738;BMP280;52478;51.844;6.582;2023-04-01T10:57:42;99319.28;;;22.18
65738;BMP280;52478;51.844;6.582;2023-04-01T11:00:58;99324.16;;;22.17
65738;BMP280;52478;51.844;6.582;2023-04-01T11:04:13;99320.06;;;22.18
65738;BMP280;52478;51.844;6.582;2023-04-01T11:16:42;99345.28;;;22.20
65738;BMP280;52478;51.844;6.582;2023-04-01T11:19:52;99349.56;;;22.21
65738;BMP280;52478;51.844;6.582;2023-04-01T11:22:36;99350.84;;;22.20
65738;BMP280;52478;51.844;6.582;2023-04-01T11:25:20;99345.28;;;22.20
65738;BMP280;52478;51.844;6.582;2023-04-01T11:28:20;99360.69;;;22.21
65738;BMP280;52478;51.844;6.582;2023-04-01T11:31:02;99356.63;;;22.22
65738;BMP280;52478;51.844;6.582;2023-04-01T11:33:35;99365.00;;;22.22
65738;BMP280;52478;51.844;6.582;2023-04-01T11:36:18;99359.44;;;22.22
65738;BMP280;52478;51.844;6.582;2023-04-01T11:39:14;99376.16;;;22.22
65738;BMP280;52478;51.844;6.582;2023-04-01T11:41:51;99376.16;;;22.22
65738;BMP280;52478;51.844;6.582;2023-04-01T11:44:24;99385.78;;;22.21
65738;BMP280;52478;51.844;6.582;2023-04-01T11:47:03;99372.78;;;22.16
65738;BMP280;52478;51.844;6.582;2023-04-01T11:49:49;99383.75;;;22.22
65738;BMP280;52478;51.844;6.582;2023-04-01T11:52:29;99394.34;;;22.23
65738;BMP280;52478;51.844;6.582;2023-04-01T11:55:19;99401.22;;;22.22
65738;BMP280;52478;51.844;6.582;2023-04-01T11:58:02;99398.44;;;22.22
65738;BMP280;52478;51.844;6.582;2023-04-01T12:03:39;99405.50;;;22.23
65738;BMP280;52478;51.844;6.582;2023-04-01T12:06:14;99406.94;;;22.24
65738;BMP280;52478;51.844;6.582;2023-04-01T12:08:49;99412.53;;;22.24
65738;BMP280;52478;51.844;6.582;2023-04-01T12:11:25;99416.66;;;22.23
65738;BMP280;52478;51.844;6.582;2023-04-01T12:14:01;99429.25;;;22.24
65738;BMP280;52478;51.844;6.582;2023-04-01T12:16:40;99425.00;;;22.23
65738;BMP280;52478;51.844;6.582;2023-04-01T12:19:13;99426.47;;;22.24
65738;BMP280;52478;51.844;6.582;2023-04-01T12:21:42;99432.03;;;22.24
65738;BMP280;52478;51.844;6.582;2023-04-01T12:24:34;99433.38;;;22.23
65738;BMP280;52478;51.844;6.582;2023-04-01T12:27:18;99441.88;;;22.25
65738;BMP280;52478;51.844;6.582;2023-04-01T12:30:15;99435.59;;;22.25
65738;BMP280;52478;51.844;6.582;2023-04-01T12:32:54;99439.09;;;22.25
65738;BMP280;52478;51.844;6.582;2023-04-01T12:35:33;99445.44;;;22.26
65738;BMP280;52478;51.844;6.582;2023-04-01T12:38:13;99446.19;;;22.26
65738;BMP280;52478;51.844;6.582;2023-04-01T12:41:05;99457.34;;;22.26
65738;BMP280;52478;51.844;6.582;2023-04-01T12:44:04;99455.81;;;22.25
65738;BMP280;52478;51.844;6.582;2023-04-01T12:46:42;99454.34;;;22.24
65738;BMP280;52478;51.844;6.582;2023-04-01T12:49:41;99463.47;;;22.25
65738;BMP280;52478;51.844;6.582;2023-04-01T12:52:14;99460.84;;;22.27
65738;BMP280;52478;51.844;6.582;2023-04-01T12:55:08;99471.28;;;22.26
65738;BMP280;52478;51.844;6.582;2023-04-01T12:58:03;99466.44;;;22.27
65738;BMP280;52478;51.844;6.582;2023-04-01T13:01:01;99471.28;;;22.26
65738;BMP280;52478;51.844;6.582;2023-04-01T13:03:50;99469.97;;;22.27
65738;BMP280;52478;51.844;6.582;2023-04-01T13:09:16;99483.91;;;22.27
65738;BMP280;52478;51.844;6.582;2023-04-01T13:12:01;99492.06;;;22.25
65738;BMP280;52478;51.844;6.582;2023-04-01T13:14:49;99493.34;;;22.24
65738;BMP280;52478;51.844;6.582;2023-04-01T13:17:20;99487.63;;;22.22
65738;BMP280;52478;51.844;6.582;2023-04-01T13:19:53;99501.72;;;22.24
65738;BMP280;52478;51.844;6.582;2023-04-01T13:22:27;99504.50;;;22.24
65738;BMP280;52478;51.844;6.582;2023-04-01T13:25:00;99510.09;;;22.24
65738;BMP280;52478;51.844;6.582;2023-04-01T13:27:34;99508.06;;;22.25
65738;BMP280;52478;51.844;6.582;2023-04-01T13:30:18;99514.19;;;22.23
65738;BMP280;52478;51.844;6.582;2023-04-01T13:32:50;99521.06;;;22.22
65738;BMP280;52478;51.844;6.582;2023-04-01T13:35:28;99517.00;;;22.23
65738;BMP280;52478;51.844;6.582;2023-04-01T13:41:05;99528.13;;;22.23
65738;BMP280;52478;51.844;6.582;2023-04-01T13:43:40;99529.44;;;22.22
65738;BMP280;52478;51.844;6.582;2023-04-01T13:46:25;99533.72;;;22.23
65738;BMP280;52478;51.844;6.582;2023-04-01T13:49:29;99532.94;;;22.23
65738;BMP280;52478;51.844;6.582;2023-04-01T13:52:35;99535.00;;;22.22
65738;BMP280;52478;51.844;6.582;2023-04-01T13:55:34;99538.53;;;22.23
65738;BMP280;52478;51.844;6.582;2023-04-01T13:58:20;99533.72;;;22.23
65738;BMP280;52478;51.844;6.582;2023-04-01T14:00:56;99527.19;;;22.21
65738;BMP280;52478;51.844;6.582;2023-04-01T14:03:52;99539.28;;;22.23
65738;BMP280;52478;51.844;6.582;2023-04-01T14:06:28;99544.88;;;22.23
65738;BMP280;52478;51.844;6.582;2023-04-01T14:09:36;99551.16;;;22.24
65738;BMP280;52478;51.844;6.582;2023-04-01T14:12:18;99556.75;;;22.24
65738;BMP280;52478;51.844;6.582;2023-04-01T14:15:03;99550.44;;;22.23
65738;BMP280;52478;51.844;6.582;2023-04-01T14:17:45;99562.31;;;22.24
65738;BMP280;52478;51.844;6.582;2023-04-01T14:20:22;99556.00;;;22.23
65738;BMP280;52478;51.844;6.582;2023-04-01T14:26:04;99567.69;;;22.22
65738;BMP280;52478;51.844;6.582;2023-04-01T14:28:40;99564.16;;;22.21
65738;BMP280;52478;51.844;6.582;2023-04-01T14:31:34;99575.31;;;22.21
65738;BMP280;52478;51.844;6.582;2023-04-01T14:34:12;99573.81;;;22.20
65738;BMP280;52478;51.844;6.582;2023-04-01T14:37:03;99579.41;;;22.20
65738;BMP280;52478;51.844;6.582;2023-04-01T14:39:53;99579.41;;;22.20
65738;BMP280;52478;51.844;6.582;2023-04-01T14:42:45;99590.53;;;22.20
65738;BMP280;52478;51.844;6.582;2023-04-01T14:48:15;99596.88;;;22.21
65738;BMP280;52478;51.844;6.582;2023-04-01T14:50:45;99601.69;;;22.20
65738;BMP280;52478;51.844;6.582;2023-04-01T14:53:26;99599.47;;;22.19
65738;BMP280;52478;51.844;6.582;2023-04-01T14:55:54;99607.28;;;22.20
65738;BMP280;52478;51.844;6.582;2023-04-01T14:58:23;99614.16;;;22.19
65738;BMP280;52478;51.844;6.582;2023-04-01T15:01:00;99618.41;;;22.20
65738;BMP280;52478;51.844;6.582;2023-04-01T15:03:32;99619.91;;;22.21
65738;BMP280;52478;51.844;6.582;2023-04-01T15:06:35;99619.91;;;22.21
65738;BMP280;52478;51.844;6.582;2023-04-01T15:09:14;99630.31;;;22.21
65738;BMP280;52478;51.844;6.582;2023-04-01T15:11:54;99628.25;;;22.21
65738;BMP280;52478;51.844;6.582;2023-04-01T15:14:40;99635.13;;;22.20
65738;BMP280;52478;51.844;6.582;2023-04-01T15:17:21;99647.78;;;22.21
65738;BMP280;52478;51.844;6.582;2023-04-01T15:20:04;99644.06;;;22.19
65738;BMP280;52478;51.844;6.582;2023-04-01T15:22:45;99651.69;;;22.18
65738;BMP280;52478;51.844;6.582;2023-04-01T15:25:34;99653.00;;;22.17
65738;BMP280;52478;51.844;6.582;2023-04-01T15:28:10;99653.00;;;22.17
65738;BMP280;52478;51.844;6.582;2023-04-01T15:30:49;99666.38;;;22.19
65738;BMP280;52478;51.844;6.582;2023-04-01T15:33:33;99667.66;;;22.18
65738;BMP280;52478;51.844;6.582;2023-04-01T15:36:12;99670.47;;;22.18
65738;BMP280;52478;51.844;6.582;2023-04-01T15:38:46;99672.50;;;22.17
65738;BMP280;52478;51.844;6.582;2023-04-01T15:41:18;99676.56;;;22.16
65738;BMP280;52478;51.844;6.582;2023-04-01T15:43:46;99680.88;;;22.17
65738;BMP280;52478;51.844;6.582;2023-04-01T15:46:24;99679.34;;;22.16
65738;BMP280;52478;51.844;6.582;2023-04-01T15:49:01;99684.94;;;22.16
65738;BMP280;52478;51.844;6.582;2023-04-01T15:51:46;99691.25;;;22.17
65738;BMP280;52478;51.844;6.582;2023-04-01T15:54:27;99693.28;;;22.16